»·PEaware :: N45XS KBUR-KLAS

N45XS :: KBUR-KLAS

FLIGHT INFORMATION

Flight Status: Arrived
Operator: Privately registered:
United States
More flights under this callsign
Pilot: Anthony R. (29179)
Aircraft: BEECH AIRCRAFT BARON
(BE58)
More flights by this aircraft type
Origin: KBUR Bob Hope-Burbank
United States
Destination: KLAS McCarran Intl
United States
More flights between these airports :: More routes between these airports
Route: +VNY3 DAG CRESO4
File this flight plan on PilotEdge
Remarks:
Altitude:
(Current/Filed)
12,000ft
Speed:
(Current/Filed)
150kts
Departed: 17-May-20 02:19 PM
Arrived: 17-May-20 03:39 PM
Distance/Time
Traveled:
193nm/1:20
Distance/Time
To Go:
Arrived

Flight Plot

Page will automatically refresh every two minutes.


Map Options




Map Legend


Flown Route
Filed Route
Departure Airport
Arrival Airport
Navaid (VOR, NDB)
Fix

Horizontal Profiles

Position Reports

Time Latitude Longitude Heading Altitude Ground
Speed
17-May-20 13:23 34.200026 -118.359427 167 721ft 0kts
17-May-20 13:25 34.200215 -118.358844 258 721ft 0kts
17-May-20 13:26 34.200214 -118.358850 258 721ft 0kts
17-May-20 13:27 34.200214 -118.358850 258 721ft 0kts
17-May-20 13:28 34.200214 -118.358850 258 721ft 0kts
17-May-20 13:29 34.200214 -118.358850 258 721ft 0kts
17-May-20 13:30 34.200214 -118.358850 258 721ft 0kts
17-May-20 13:31 34.200214 -118.358850 258 721ft 0kts
17-May-20 13:32 34.200214 -118.358850 258 721ft 0kts
17-May-20 13:33 34.200214 -118.358850 258 721ft 0kts
17-May-20 13:34 34.200214 -118.358850 258 721ft 0kts
17-May-20 13:35 34.200171 -118.359091 258 721ft 0kts
17-May-20 13:36 34.200171 -118.359091 258 721ft 0kts
17-May-20 13:37 34.200171 -118.359091 258 721ft 0kts
17-May-20 13:38 34.200171 -118.359091 258 721ft 0kts
17-May-20 13:39 34.200171 -118.359091 258 721ft 0kts
17-May-20 13:40 34.200171 -118.359091 258 721ft 0kts
17-May-20 13:41 34.200171 -118.359091 258 721ft 0kts
17-May-20 13:42 34.200171 -118.359091 258 721ft 0kts
17-May-20 13:43 34.200171 -118.359091 258 721ft 0kts
17-May-20 13:44 34.200171 -118.359091 258 721ft 0kts
17-May-20 13:46 34.200171 -118.359091 258 721ft 0kts
17-May-20 13:47 34.200171 -118.359091 258 721ft 0kts
17-May-20 13:48 34.200171 -118.359091 258 721ft 0kts
17-May-20 13:49 34.200171 -118.359091 258 721ft 0kts
17-May-20 13:50 34.200171 -118.359091 258 721ft 0kts
17-May-20 13:51 34.200171 -118.359091 258 721ft 0kts
17-May-20 13:52 34.200171 -118.359091 258 721ft 0kts
17-May-20 13:53 34.200171 -118.359091 258 721ft 0kts
17-May-20 13:54 34.200171 -118.359091 258 721ft 0kts
17-May-20 13:55 34.200171 -118.359091 258 721ft 0kts
17-May-20 13:56 34.200171 -118.359091 258 721ft 0kts
17-May-20 13:57 34.200171 -118.359091 258 721ft 0kts
17-May-20 13:58 34.200171 -118.359091 258 721ft 0kts
17-May-20 13:59 34.200171 -118.359091 258 721ft 0kts
17-May-20 14:00 34.200171 -118.359091 258 721ft 0kts
17-May-20 14:01 34.200171 -118.359091 258 721ft 0kts
17-May-20 14:01 34.200171 -118.359091 258 721ft 0kts
17-May-20 14:03 34.200171 -118.359091 258 721ft 0kts
17-May-20 14:03 34.200171 -118.359091 258 721ft 0kts
17-May-20 14:04 34.200171 -118.359091 258 721ft 0kts
17-May-20 14:06 34.200171 -118.359091 258 721ft 0kts
17-May-20 14:06 34.200171 -118.359091 258 721ft 0kts
17-May-20 14:07 34.200171 -118.359091 258 721ft 0kts
17-May-20 14:08 34.200171 -118.359091 258 721ft 0kts
17-May-20 14:09 34.200171 -118.359091 258 721ft 0kts
17-May-20 14:10 34.200170 -118.359093 258 721ft 0kts
17-May-20 14:11 34.201827 -118.359677 345 729ft 16kts
17-May-20 14:12 34.206632 -118.360045 347 745ft 20kts
17-May-20 14:13 34.209039 -118.360719 346 756ft 2kts
17-May-20 14:14 34.211491 -118.361203 29 767ft 0kts
17-May-20 14:15 34.211491 -118.361203 29 767ft 0kts
17-May-20 14:16 34.211491 -118.361203 29 767ft 0kts
17-May-20 14:17 34.210836 -118.360075 167 764ft 40kts
17-May-20 14:18 34.182735 -118.353701 201 1666ft 108kts
17-May-20 14:19 34.163852 -118.376671 222 3176ft 97kts
17-May-20 14:20 34.149682 -118.402058 283 4463ft 99kts
17-May-20 14:21 34.178513 -118.424447 330 5352ft 125kts
17-May-20 14:22 34.208693 -118.436486 354 6515ft 115kts
17-May-20 14:23 34.241302 -118.436278 356 7432ft 123kts
17-May-20 14:24 34.276181 -118.436117 355 8320ft 128kts
17-May-20 14:25 34.311682 -118.435775 355 9179ft 128kts
17-May-20 14:26 34.347658 -118.435150 355 9951ft 131kts
17-May-20 14:27 34.384460 -118.433994 355 10665ft 133kts
17-May-20 14:28 34.420262 -118.423317 60 10933ft 165kts
17-May-20 14:29 34.444580 -118.375426 59 11094ft 175kts
17-May-20 14:30 34.467101 -118.325331 64 10902ft 171kts
17-May-20 14:31 34.490625 -118.275841 58 10684ft 174kts
17-May-20 14:32 34.517472 -118.233540 49 10848ft 156kts
17-May-20 14:33 34.544612 -118.194736 49 10966ft 153kts
17-May-20 14:34 34.574690 -118.152967 48 10934ft 172kts
17-May-20 14:35 34.604277 -118.113126 46 10984ft 157kts
17-May-20 14:36 34.637321 -118.070703 46 11007ft 184kts
17-May-20 14:37 34.649007 -118.011969 96 10948ft 186kts
17-May-20 14:38 34.647390 -117.948840 96 10933ft 187kts
17-May-20 14:39 34.654894 -117.885613 82 10931ft 191kts
17-May-20 14:40 34.666000 -117.822605 86 10934ft 189kts
17-May-20 14:41 34.674360 -117.759531 76 10925ft 192kts
17-May-20 14:42 34.686300 -117.696787 85 10933ft 189kts
17-May-20 14:43 34.697874 -117.634292 77 10938ft 190kts
17-May-20 14:44 34.713117 -117.572845 76 10944ft 190kts
17-May-20 14:45 34.728728 -117.511516 76 10947ft 189kts
17-May-20 14:46 34.744316 -117.450293 76 10945ft 190kts
17-May-20 14:47 34.759919 -117.388873 76 10945ft 190kts
17-May-20 14:48 34.775511 -117.327357 77 10937ft 190kts
17-May-20 14:49 34.791064 -117.265863 76 10929ft 190kts
17-May-20 14:50 34.806675 -117.203952 76 10924ft 192kts
17-May-20 14:51 34.822424 -117.141391 76 10903ft 195kts
17-May-20 14:52 34.838288 -117.078182 75 10876ft 195kts
17-May-20 14:53 34.853977 -117.015571 75 10873ft 191kts
17-May-20 14:54 34.869328 -116.954120 74 10869ft 188kts
17-May-20 14:55 34.884512 -116.893243 74 10868ft 187kts
17-May-20 14:56 34.899404 -116.833423 74 10937ft 185kts
17-May-20 14:57 34.914605 -116.772114 74 10951ft 193kts
17-May-20 14:58 34.930214 -116.709063 75 10942ft 196kts
17-May-20 14:59 34.945950 -116.645332 75 10941ft 197kts
17-May-20 15:00 34.962051 -116.581384 68 10931ft 198kts
17-May-20 15:01 34.987679 -116.521701 63 10946ft 198kts
17-May-20 15:02 35.013978 -116.462451 64 10943ft 199kts
17-May-20 15:03 35.040297 -116.403127 65 10943ft 198kts
17-May-20 15:04 35.066487 -116.343943 65 10945ft 198kts
17-May-20 15:05 35.092600 -116.284891 65 10943ft 197kts
17-May-20 15:06 35.118660 -116.225857 65 10937ft 196kts
17-May-20 15:07 35.144513 -116.167192 65 10941ft 196kts
17-May-20 15:08 35.170331 -116.108499 65 10939ft 196kts
17-May-20 15:09 35.196110 -116.049794 65 10940ft 196kts
17-May-20 15:10 35.221959 -115.990828 66 10933ft 197kts
17-May-20 15:11 35.247934 -115.931460 66 10928ft 198kts
17-May-20 15:12 35.273873 -115.872081 66 10926ft 198kts
17-May-20 15:13 35.299821 -115.812584 66 10921ft 198kts
17-May-20 15:14 35.332637 -115.757987 50 10913ft 202kts
17-May-20 15:15 35.370272 -115.707743 50 10966ft 199kts
17-May-20 15:16 35.407850 -115.657586 50 10947ft 198kts
17-May-20 15:17 35.444619 -115.608497 50 10094ft 186kts
17-May-20 15:18 35.477107 -115.565066 50 10004ft 160kts
17-May-20 15:19 35.505971 -115.526418 51 10048ft 149kts
17-May-20 15:20 35.534856 -115.487609 50 10075ft 157kts
17-May-20 15:21 35.564934 -115.447212 50 9868ft 162kts
17-May-20 15:22 35.595288 -115.406470 50 9279ft 162kts
17-May-20 15:23 35.626022 -115.365084 50 8634ft 165kts
17-May-20 15:24 35.656920 -115.323444 51 8035ft 164kts
17-May-20 15:25 35.687557 -115.282133 51 7426ft 164kts
17-May-20 15:26 35.718275 -115.240990 40 7051ft 164kts
17-May-20 15:27 35.764112 -115.225040 12 7109ft 180kts
17-May-20 15:28 35.814451 -115.210322 11 7078ft 189kts
17-May-20 15:29 35.865462 -115.195366 12 7046ft 188kts
17-May-20 15:30 35.914474 -115.181174 12 7027ft 177kts
17-May-20 15:31 35.960907 -115.167840 10 6997ft 157kts
17-May-20 15:32 36.003289 -115.155499 11 6785ft 166kts
17-May-20 15:33 36.049058 -115.142379 13 6059ft 172kts
17-May-20 15:34 36.094407 -115.127876 16 4961ft 156kts
17-May-20 15:35 36.128880 -115.132688 291 3723ft 123kts
17-May-20 15:36 36.112380 -115.148928 209 2680ft 81kts
17-May-20 15:38 36.093285 -115.160114 206 2107ft 55kts
17-May-20 15:39 36.089301 -115.163192 277 2128ft 0kts
17-May-20 15:40 36.089381 -115.163454 292 2128ft 0kts
17-May-20 15:41 36.089477 -115.163739 294 2129ft 9kts
17-May-20 15:42 36.089256 -115.166620 96 2139ft 0kts
17-May-20 15:43 36.089256 -115.166620 96 2139ft 0kts
17-May-20 15:44 36.089256 -115.166620 96 2139ft 0kts

Navigation Log

Ident Type
Flight plan parsing failed, navigation log unavailable